Time;durP1;ratioP1;P1;durP2;ratioP2;P2;SDS_P1;SDS_P2;PMS_P1;PMS_P2;Temp;Humidity;BMP_temperature;BMP_pressure;BME280_temperature;BME280_humidity;BME280_pressure;Samples;Min_cycle;Max_cycle;Signal;HPM_P1;HPM_P2
2023/04/18 00:00:22;;;;;;;11.65;10.65;;;11.10;99.90;;;;;;5111988;28;20054;-68
2023/04/18 00:02:50;;;;;;;11.50;10.45;;;11.10;99.90;;;;;;5111749;28;20103;-67
2023/04/18 00:05:16;;;;;;;11.80;10.70;;;11.10;99.90;;;;;;5111676;28;20398;-68
2023/04/18 00:07:43;;;;;;;10.88;9.98;;;11.00;99.90;;;;;;5112051;28;20049;-68
2023/04/18 00:10:09;;;;;;;11.52;10.50;;;11.10;99.90;;;;;;5112182;28;20046;-67
2023/04/18 00:12:35;;;;;;;11.40;10.40;;;11.10;99.90;;;;;;5111732;28;20051;-67
2023/04/18 00:15:03;;;;;;;11.57;10.57;;;11.00;99.90;;;;;;5111669;28;20032;-66
2023/04/18 00:17:29;;;;;;;12.15;10.95;;;11.00;99.90;;;;;;5111695;28;20043;-67
2023/04/18 00:19:57;;;;;;;12.38;11.18;;;11.10;99.90;;;;;;5111098;28;20020;-67
2023/04/18 00:22:23;;;;;;;11.95;10.85;;;11.00;99.90;;;;;;5111713;28;20023;-68
2023/04/18 00:24:50;;;;;;;11.27;10.32;;;11.00;99.90;;;;;;5111609;28;20480;-67
2023/04/18 00:27:20;;;;;;;12.02;10.82;;;11.00;99.90;;;;;;5111481;28;20048;-68
2023/04/18 00:29:46;;;;;;;11.75;10.68;;;11.00;99.90;;;;;;5112161;28;20411;-68
2023/04/18 00:32:12;;;;;;;12.20;10.95;;;11.10;99.90;;;;;;5111620;28;20019;-68
2023/04/18 00:34:39;;;;;;;12.63;10.90;;;11.00;99.90;;;;;;5111147;28;20517;-68
2023/04/18 00:37:05;;;;;;;12.85;11.65;;;11.00;99.90;;;;;;5111945;28;20030;-67
2023/04/18 00:39:32;;;;;;;12.52;11.32;;;10.90;99.90;;;;;;5111471;28;20101;-68
2023/04/18 00:41:57;;;;;;;12.07;10.98;;;10.90;99.90;;;;;;5111441;28;20023;-68
2023/04/18 00:44:23;;;;;;;11.90;10.90;;;11.00;99.90;;;;;;5111434;28;20111;-68
2023/04/18 00:46:49;;;;;;;11.60;10.60;;;11.00;99.90;;;;;;5115143;28;20024;-67
2023/04/18 00:49:15;;;;;;;12.60;11.30;;;11.00;99.90;;;;;;5115665;28;20386;-67
2023/04/18 00:51:41;;;;;;;11.93;10.82;;;11.00;99.90;;;;;;5115664;28;20038;-66
2023/04/18 00:54:07;;;;;;;10.95;9.90;;;11.00;99.90;;;;;;5115556;28;20034;-68
2023/04/18 00:56:34;;;;;;;11.07;10.07;;;11.00;99.90;;;;;;5115635;28;20040;-66
2023/04/18 00:59:00;;;;;;;11.13;10.13;;;10.80;99.90;;;;;;5097139;28;20109;-67
2023/04/18 01:01:26;;;;;;;11.32;10.20;;;10.90;99.90;;;;;;5115682;28;20024;-67
2023/04/18 01:03:52;;;;;;;11.02;10.07;;;10.90;99.90;;;;;;5114991;28;20027;-68
2023/04/18 01:06:18;;;;;;;11.60;10.50;;;10.80;99.90;;;;;;5115285;28;20098;-68
2023/04/18 01:08:44;;;;;;;11.23;10.23;;;10.90;99.90;;;;;;5115172;28;20039;-68
2023/04/18 01:11:10;;;;;;;11.40;10.40;;;10.80;99.90;;;;;;5115046;28;20051;-67
2023/04/18 01:13:36;;;;;;;10.85;9.82;;;10.90;99.90;;;;;;5115127;28;20036;-68
2023/04/18 01:16:01;;;;;;;11.43;10.35;;;10.80;99.90;;;;;;5115173;28;20016;-67
2023/04/18 01:18:30;;;;;;;11.30;10.30;;;10.70;99.90;;;;;;5114670;28;20027;-67
2023/04/18 01:20:59;;;;;;;11.10;10.10;;;10.70;99.90;;;;;;5114864;28;20032;-67
2023/04/18 01:23:25;;;;;;;11.45;10.45;;;10.70;99.90;;;;;;5115296;28;20136;-68
2023/04/18 01:25:50;;;;;;;11.50;10.50;;;10.70;99.90;;;;;;5115074;28;20034;-66
2023/04/18 01:28:20;;;;;;;12.20;11.00;;;10.70;99.90;;;;;;5114655;28;20024;-68
2023/04/18 01:30:45;;;;;;;11.73;10.65;;;10.70;99.90;;;;;;5114739;28;20076;-68
2023/04/18 01:33:11;;;;;;;12.23;11.13;;;10.60;99.90;;;;;;5114363;28;20453;-68
2023/04/18 01:35:37;;;;;;;11.48;10.43;;;10.70;99.90;;;;;;5114382;28;20039;-68
2023/04/18 01:38:02;;;;;;;11.65;10.65;;;10.70;99.90;;;;;;5114960;28;20422;-68
2023/04/18 01:40:29;;;;;;;11.45;10.35;;;10.70;99.90;;;;;;5114863;28;20020;-68
2023/04/18 01:42:54;;;;;;;10.90;9.90;;;10.70;99.90;;;;;;5114590;28;20067;-67
2023/04/18 01:45:21;;;;;;;11.40;10.30;;;10.70;99.90;;;;;;5114285;28;20058;-67
2023/04/18 01:47:47;;;;;;;10.80;9.90;;;10.60;99.90;;;;;;5114028;28;20036;-68
2023/04/18 01:50:13;;;;;;;10.52;9.63;;;10.60;99.90;;;;;;5114569;28;20081;-67
2023/04/18 01:52:39;;;;;;;11.88;10.50;;;10.60;99.90;;;;;;5114758;28;20031;-68
2023/04/18 01:55:05;;;;;;;10.88;9.95;;;10.50;99.90;;;;;;5114574;28;20038;-68
2023/04/18 01:57:32;;;;;;;12.02;10.85;;;10.50;99.90;;;;;;5113518;28;20024;-67
2023/04/18 01:59:58;;;;;;;11.15;10.23;;;10.60;99.90;;;;;;5114206;28;20024;-68
2023/04/18 02:02:23;;;;;;;11.25;10.23;;;10.60;99.90;;;;;;5114238;28;20035;-65
2023/04/18 02:04:49;;;;;;;11.95;10.80;;;10.60;99.90;;;;;;5095783;28;20094;-68
2023/04/18 02:07:15;;;;;;;12.15;10.95;;;10.50;99.90;;;;;;5114266;28;20027;-68
2023/04/18 02:09:40;;;;;;;12.30;10.82;;;10.50;99.90;;;;;;5113946;28;20396;-67
2023/04/18 02:12:06;;;;;;;12.90;11.70;;;10.50;99.90;;;;;;5113838;28;20419;-68
2023/04/18 02:14:34;;;;;;;13.00;11.80;;;10.50;99.90;;;;;;5114220;28;20144;-67
2023/04/18 02:17:01;;;;;;;12.52;11.38;;;10.60;99.90;;;;;;5113626;28;20027;-67
2023/04/18 02:19:28;;;;;;;12.98;11.65;;;10.50;99.90;;;;;;5113853;28;20035;-68
2023/04/18 02:21:54;;;;;;;12.95;11.75;;;10.60;99.90;;;;;;5095618;28;20012;-68
2023/04/18 02:24:19;;;;;;;12.30;11.10;;;10.60;99.90;;;;;;5113688;28;20454;-68
2023/04/18 02:26:45;;;;;;;13.00;11.80;;;10.60;99.90;;;;;;5113746;28;20419;-68
2023/04/18 02:29:11;;;;;;;12.05;10.95;;;10.50;99.90;;;;;;5113872;28;20034;-68
2023/04/18 02:31:39;;;;;;;12.55;11.50;;;10.50;99.90;;;;;;5113585;28;20027;-67
2023/04/18 02:34:05;;;;;;;12.85;11.75;;;10.50;99.90;;;;;;5113591;28;20032;-67
2023/04/18 02:36:31;;;;;;;12.95;11.65;;;10.40;99.90;;;;;;5113816;28;20043;-67
2023/04/18 02:38:56;;;;;;;13.32;12.13;;;10.30;99.90;;;;;;5113875;28;20122;-68
2023/04/18 02:41:22;;;;;;;13.30;12.00;;;10.40;99.90;;;;;;5113726;28;20027;-67
2023/04/18 02:43:48;;;;;;;13.10;11.73;;;10.30;99.90;;;;;;5113329;28;20024;-67
2023/04/18 02:46:14;;;;;;;13.48;12.18;;;10.20;99.90;;;;;;5113113;28;20023;-67
2023/04/18 02:48:39;;;;;;;15.55;13.13;;;10.20;99.90;;;;;;5113381;28;20044;-67
2023/04/18 02:51:07;;;;;;;14.43;13.15;;;10.20;99.90;;;;;;5113628;28;20027;-67
2023/04/18 02:53:33;;;;;;;15.63;14.02;;;10.10;99.90;;;;;;5113133;28;20027;-67
2023/04/18 02:56:00;;;;;;;14.65;13.35;;;10.20;99.90;;;;;;5113114;28;20028;-67
2023/04/18 02:58:26;;;;;;;14.63;13.32;;;10.20;99.90;;;;;;5113188;28;20034;-67
2023/04/18 03:00:53;;;;;;;15.23;13.73;;;10.20;99.90;;;;;;5112919;28;20015;-68
2023/04/18 03:03:19;;;;;;;15.85;14.38;;;10.20;99.90;;;;;;5113029;28;20028;-67
2023/04/18 03:05:44;;;;;;;15.65;14.15;;;10.10;99.90;;;;;;5112940;28;20509;-67
2023/04/18 03:08:10;;;;;;;14.60;13.13;;;10.00;99.90;;;;;;5112820;28;20547;-67
2023/04/18 03:10:36;;;;;;;15.90;14.50;;;10.00;99.90;;;;;;5112761;28;20032;-68
2023/04/18 03:13:02;;;;;;;16.05;14.55;;;10.00;99.90;;;;;;5112650;28;20130;-68
2023/04/18 03:15:30;;;;;;;17.42;15.82;;;9.90;99.90;;;;;;5112448;28;20020;-68
2023/04/18 03:17:55;;;;;;;17.65;16.05;;;9.90;99.90;;;;;;5112680;28;20020;-68
2023/04/18 03:20:21;;;;;;;17.48;15.88;;;9.90;99.90;;;;;;5113021;28;20019;-68
2023/04/18 03:22:47;;;;;;;18.25;16.55;;;9.90;99.90;;;;;;5112642;28;20023;-68
2023/04/18 03:25:13;;;;;;;19.08;17.38;;;9.90;99.90;;;;;;5112525;28;20214;-68
2023/04/18 03:27:39;;;;;;;18.60;16.80;;;9.80;99.90;;;;;;5112463;28;20055;-68
2023/04/18 03:30:05;;;;;;;20.25;18.35;;;9.80;99.90;;;;;;5094146;28;20027;-67
2023/04/18 03:32:32;;;;;;;20.10;18.20;;;9.80;99.90;;;;;;5112384;28;20049;-68
2023/04/18 03:34:58;;;;;;;20.25;18.38;;;9.80;99.90;;;;;;5112297;28;20035;-68
2023/04/18 03:37:24;;;;;;;20.85;18.77;;;9.70;99.90;;;;;;5112421;28;20023;-67
2023/04/18 03:39:50;;;;;;;21.00;18.90;;;9.70;99.90;;;;;;5112721;28;20023;-66
2023/04/18 03:42:15;;;;;;;20.75;18.67;;;9.70;99.90;;;;;;5112108;28;20487;-68
2023/04/18 03:44:41;;;;;;;21.50;19.50;;;9.70;99.90;;;;;;5111913;28;20080;-68
2023/04/18 03:47:07;;;;;;;20.70;18.70;;;9.70;99.90;;;;;;5112208;28;20050;-67
2023/04/18 03:49:32;;;;;;;21.15;19.15;;;9.70;99.90;;;;;;5112069;28;20046;-66
2023/04/18 03:51:58;;;;;;;21.50;19.42;;;9.70;99.90;;;;;;5112107;28;20031;-68
2023/04/18 03:54:24;;;;;;;21.45;19.45;;;9.70;99.90;;;;;;5112110;28;20039;-67
2023/04/18 03:56:49;;;;;;;21.55;19.45;;;9.60;99.90;;;;;;5111862;28;20027;-67
2023/04/18 03:59:15;;;;;;;21.67;19.38;;;9.60;99.90;;;;;;5111972;28;20034;-68
2023/04/18 04:01:41;;;;;;;20.55;18.58;;;9.50;99.90;;;;;;5112310;28;20028;-67
2023/04/18 04:04:12;;;;;;;22.15;20.05;;;9.40;99.90;;;;;;5111822;28;20027;-68
2023/04/18 04:06:38;;;;;;;21.33;19.35;;;9.40;99.90;;;;;;5112016;28;20096;-66
2023/04/18 04:09:03;;;;;;;21.35;19.35;;;9.30;99.90;;;;;;5111556;28;20027;-67
2023/04/18 04:11:29;;;;;;;22.77;20.48;;;9.30;99.90;;;;;;5110563;28;20500;-67
2023/04/18 04:13:55;;;;;;;22.00;19.85;;;9.20;99.90;;;;;;5111758;28;20401;-68
2023/04/18 04:16:20;;;;;;;23.00;20.65;;;9.30;99.90;;;;;;5111293;28;20039;-67
2023/04/18 04:18:46;;;;;;;22.48;20.20;;;9.10;99.90;;;;;;5111798;28;20037;-67
2023/04/18 04:21:12;;;;;;;22.80;20.58;;;9.20;99.90;;;;;;5093199;28;20133;-67
2023/04/18 04:23:37;;;;;;;22.38;20.10;;;9.10;99.90;;;;;;5111728;28;20099;-68
2023/04/18 04:26:03;;;;;;;23.27;20.95;;;9.10;99.90;;;;;;5111325;28;20179;-67
2023/04/18 04:28:30;;;;;;;23.50;21.20;;;9.10;99.90;;;;;;5111586;28;20028;-67
2023/04/18 04:30:56;;;;;;;23.77;21.40;;;9.10;99.90;;;;;;5111686;28;20106;-67
2023/04/18 04:33:28;;;;;;;23.95;21.55;;;9.00;99.90;;;;;;5111870;28;20168;-67
2023/04/18 04:35:55;;;;;;;24.35;21.98;;;9.10;99.90;;;;;;5111699;28;20108;-67
2023/04/18 04:38:23;;;;;;;26.27;23.58;;;9.10;99.90;;;;;;5111568;28;20031;-67
2023/04/18 04:40:50;;;;;;;26.42;23.92;;;9.10;99.90;;;;;;5111198;28;20109;-67
2023/04/18 04:43:16;;;;;;;27.05;24.20;;;9.20;99.90;;;;;;5111912;28;20019;-68
2023/04/18 04:45:42;;;;;;;27.08;24.48;;;9.20;99.90;;;;;;5111114;28;20060;-67
2023/04/18 04:48:08;;;;;;;28.23;25.42;;;9.30;99.90;;;;;;5111874;28;20072;-67
2023/04/18 04:50:35;;;;;;;27.25;24.55;;;9.20;99.90;;;;;;5111558;28;20035;-67
2023/04/18 04:53:01;;;;;;;29.67;26.70;;;9.30;99.90;;;;;;5111330;28;20563;-67
2023/04/18 04:55:27;;;;;;;29.17;26.08;;;9.20;99.90;;;;;;5111433;28;20020;-67
2023/04/18 04:57:54;;;;;;;32.17;27.73;;;9.20;99.90;;;;;;5111422;28;20027;-67
2023/04/18 05:00:20;;;;;;;30.35;27.13;;;9.30;99.90;;;;;;5111446;28;20072;-67
2023/04/18 05:02:46;;;;;;;30.85;27.50;;;9.20;99.90;;;;;;5111433;28;20048;-68
2023/04/18 05:05:12;;;;;;;30.08;26.83;;;9.30;99.90;;;;;;5111663;28;20031;-67
2023/04/18 05:07:38;;;;;;;30.67;27.50;;;9.20;99.90;;;;;;5108123;28;20099;-66
2023/04/18 05:10:04;;;;;;;30.40;27.27;;;9.20;99.90;;;;;;5090557;28;20020;-67
2023/04/18 05:12:30;;;;;;;30.75;27.70;;;9.20;99.90;;;;;;5090729;28;20055;-66
2023/04/18 05:14:56;;;;;;;30.52;27.27;;;9.20;99.90;;;;;;5090838;28;20705;-67
2023/04/18 05:17:21;;;;;;;32.83;28.23;;;9.10;99.90;;;;;;5072821;28;20028;-67
2023/04/18 05:19:47;;;;;;;31.60;28.27;;;9.10;99.90;;;;;;5090968;28;20028;-67
2023/04/18 05:22:13;;;;;;;32.38;29.17;;;9.10;99.90;;;;;;5091020;28;20024;-67
2023/04/18 05:24:39;;;;;;;32.17;28.92;;;9.10;99.90;;;;;;5090456;28;20111;-67
2023/04/18 05:27:05;;;;;;;32.55;29.15;;;9.10;99.90;;;;;;5090772;28;20036;-67
2023/04/18 05:29:31;;;;;;;32.60;29.08;;;9.00;99.90;;;;;;5090534;28;20025;-67
2023/04/18 05:31:57;;;;;;;33.50;29.92;;;9.00;99.90;;;;;;5091696;28;20032;-68
2023/04/18 05:34:22;;;;;;;33.30;29.75;;;9.10;99.90;;;;;;5094237;28;20036;-67
2023/04/18 05:36:48;;;;;;;32.70;29.40;;;9.10;99.90;;;;;;5094343;28;20028;-66
2023/04/18 05:39:13;;;;;;;31.67;28.35;;;9.10;99.90;;;;;;5094215;28;20028;-66
2023/04/18 05:41:39;;;;;;;32.97;28.83;;;9.10;99.90;;;;;;5076118;28;20477;-67
2023/04/18 05:44:05;;;;;;;32.83;29.30;;;9.20;99.90;;;;;;5094634;28;20016;-67
2023/04/18 05:46:31;;;;;;;32.35;29.08;;;9.10;99.90;;;;;;5094308;28;20028;-68
2023/04/18 05:48:57;;;;;;;34.30;29.80;;;9.10;99.90;;;;;;5094087;28;20400;-67
2023/04/18 05:51:22;;;;;;;34.40;30.77;;;9.00;99.90;;;;;;5094071;28;20111;-67
2023/04/18 05:53:48;;;;;;;33.92;30.13;;;9.10;99.90;;;;;;5093593;28;20044;-67
2023/04/18 05:56:14;;;;;;;32.72;29.25;;;9.10;99.90;;;;;;5094217;28;20032;-67
2023/04/18 05:58:39;;;;;;;32.92;29.58;;;9.10;99.90;;;;;;5094026;28;20035;-67
2023/04/18 06:01:06;;;;;;;33.10;29.63;;;9.10;99.90;;;;;;5093880;28;20027;-67
2023/04/18 06:03:32;;;;;;;33.63;30.13;;;9.20;99.90;;;;;;5093666;28;20024;-68
2023/04/18 06:05:58;;;;;;;31.73;28.33;;;9.20;99.90;;;;;;5094164;28;20554;-67
2023/04/18 06:08:23;;;;;;;33.33;29.83;;;9.20;99.90;;;;;;5102716;28;20085;-67
2023/04/18 06:10:49;;;;;;;32.75;29.48;;;9.20;99.90;;;;;;5113896;28;20068;-67
2023/04/18 06:13:15;;;;;;;35.92;30.23;;;9.30;99.90;;;;;;5095960;28;20074;-67
2023/04/18 06:15:40;;;;;;;34.55;30.85;;;9.30;99.90;;;;;;5113639;28;20051;-66
2023/04/18 06:18:06;;;;;;;35.35;31.52;;;9.20;99.90;;;;;;5114075;28;20403;-67
2023/04/18 06:20:32;;;;;;;34.97;31.27;;;9.20;99.90;;;;;;5114030;28;20030;-67
2023/04/18 06:22:57;;;;;;;35.28;31.52;;;9.20;99.90;;;;;;5113510;28;20084;-68
2023/04/18 06:25:23;;;;;;;34.85;30.98;;;9.20;99.90;;;;;;5095551;28;20028;-67
2023/04/18 06:27:49;;;;;;;36.42;31.08;;;9.20;99.90;;;;;;5113835;28;20411;-68
2023/04/18 06:30:15;;;;;;;34.28;30.50;;;9.30;99.90;;;;;;5113804;28;20015;-68
2023/04/18 06:32:42;;;;;;;34.10;30.52;;;9.20;99.90;;;;;;5113731;28;20024;-68
2023/04/18 06:35:08;;;;;;;34.60;30.73;;;9.30;99.90;;;;;;5113415;28;20035;-67
2023/04/18 06:37:33;;;;;;;34.20;30.70;;;9.30;99.90;;;;;;5113157;28;20035;-67
2023/04/18 06:39:59;;;;;;;34.80;31.02;;;9.30;99.90;;;;;;5113699;28;20023;-68
2023/04/18 06:42:25;;;;;;;34.67;30.85;;;9.30;99.90;;;;;;5113343;28;20066;-67
2023/04/18 06:44:51;;;;;;;36.80;31.98;;;9.30;99.90;;;;;;5113239;28;20026;-66
2023/04/18 06:47:17;;;;;;;37.88;32.13;;;9.40;99.90;;;;;;5113231;28;20043;-67
2023/04/18 06:49:42;;;;;;;36.85;30.92;;;9.50;99.90;;;;;;5113268;28;20019;-67
2023/04/18 06:52:08;;;;;;;34.17;29.67;;;9.50;99.90;;;;;;5112963;28;20070;-67
2023/04/18 06:54:34;;;;;;;33.35;29.92;;;9.60;99.90;;;;;;5094826;28;20038;-67
2023/04/18 06:57:00;;;;;;;32.92;29.33;;;9.60;99.90;;;;;;5113143;28;20020;-67
2023/04/18 06:59:26;;;;;;;33.75;29.27;;;9.60;99.90;;;;;;5112845;28;20407;-67
2023/04/18 07:01:53;;;;;;;31.77;28.42;;;9.70;99.90;;;;;;5113535;28;20024;-66
2023/04/18 07:04:18;;;;;;;31.98;28.52;;;9.80;99.90;;;;;;5112762;28;20023;-67
2023/04/18 07:06:44;;;;;;;32.88;29.38;;;9.80;99.90;;;;;;5112187;28;20023;-66
2023/04/18 07:09:10;;;;;;;35.75;29.67;;;9.80;99.90;;;;;;5112356;28;20035;-67
2023/04/18 07:11:36;;;;;;;32.20;28.55;;;9.90;99.90;;;;;;5112355;28;20126;-66
2023/04/18 07:14:01;;;;;;;30.77;27.58;;;10.00;99.90;;;;;;5112014;28;20452;-67
2023/04/18 07:16:27;;;;;;;29.13;26.23;;;10.10;99.90;;;;;;5111846;28;20401;-67
2023/04/18 07:18:52;;;;;;;31.38;26.83;;;10.20;99.90;;;;;;5111775;28;20077;-66
2023/04/18 07:21:18;;;;;;;29.80;26.50;;;10.10;99.90;;;;;;5111871;28;20476;-66
2023/04/18 07:23:44;;;;;;;28.80;25.77;;;10.10;99.90;;;;;;5112550;28;20038;-65
2023/04/18 07:26:12;;;;;;;28.77;25.27;;;10.30;99.90;;;;;;5112649;28;20030;-65
2023/04/18 07:28:37;;;;;;;26.25;23.52;;;10.40;99.90;;;;;;5113072;28;20027;-67
2023/04/18 07:31:03;;;;;;;26.10;23.25;;;10.50;99.90;;;;;;5112439;28;20027;-67
2023/04/18 07:33:32;;;;;;;24.33;21.88;;;10.70;99.90;;;;;;5111610;28;20063;-65
2023/04/18 07:35:59;;;;;;;24.38;21.20;;;10.70;99.90;;;;;;5111401;28;20023;-67
2023/04/18 07:38:26;;;;;;;24.27;21.85;;;10.70;99.90;;;;;;5111626;28;20020;-67
2023/04/18 07:40:59;;;;;;;22.52;20.33;;;10.80;99.90;;;;;;5112616;28;20035;-65
2023/04/18 07:43:25;;;;;;;22.42;20.23;;;10.80;99.90;;;;;;5111854;28;20111;-67
2023/04/18 07:45:52;;;;;;;22.08;19.88;;;10.90;99.90;;;;;;5110626;28;20035;-67
2023/04/18 07:48:20;;;;;;;21.13;18.85;;;11.10;99.90;;;;;;5110816;28;20051;-67
2023/04/18 07:50:46;;;;;;;19.65;17.75;;;11.20;99.90;;;;;;5111111;28;20093;-66
2023/04/18 07:53:12;;;;;;;21.08;18.25;;;11.20;99.90;;;;;;5111423;28;20024;-66
2023/04/18 07:55:37;;;;;;;19.45;17.35;;;11.20;99.90;;;;;;5111192;28;20024;-66
2023/04/18 07:58:03;;;;;;;18.20;16.40;;;11.30;99.90;;;;;;5112288;28;20115;-66
2023/04/18 08:00:31;;;;;;;19.40;17.02;;;11.50;99.90;;;;;;5112203;28;20034;-67
2023/04/18 08:02:57;;;;;;;18.63;16.70;;;11.50;99.90;;;;;;5112345;28;20106;-67
2023/04/18 08:05:23;;;;;;;21.33;16.65;;;11.60;99.90;;;;;;5111640;28;20514;-67
2023/04/18 08:07:49;;;;;;;17.77;15.93;;;11.70;99.90;;;;;;5092693;28;20031;-66
2023/04/18 08:10:14;;;;;;;17.45;15.63;;;11.70;99.90;;;;;;5110873;28;20027;-67
2023/04/18 08:12:40;;;;;;;16.25;14.60;;;11.80;99.90;;;;;;5110838;28;20519;-67
2023/04/18 08:15:08;;;;;;;16.02;14.07;;;11.80;99.90;;;;;;5112212;28;20047;-67
2023/04/18 08:17:34;;;;;;;15.52;14.02;;;12.00;99.90;;;;;;5111831;28;20023;-66
2023/04/18 08:19:59;;;;;;;18.08;14.77;;;12.10;99.90;;;;;;5111482;28;20028;-68
2023/04/18 08:22:25;;;;;;;17.10;15.30;;;12.10;99.90;;;;;;5111842;28;20043;-67
2023/04/18 08:24:51;;;;;;;15.82;14.23;;;12.20;99.90;;;;;;5111746;28;20467;-67
2023/04/18 08:27:17;;;;;;;15.98;14.35;;;12.10;99.90;;;;;;5111866;28;20032;-66
2023/04/18 08:29:42;;;;;;;14.32;12.93;;;12.20;99.90;;;;;;5112029;28;20081;-67
2023/04/18 08:32:08;;;;;;;15.82;14.00;;;12.40;99.90;;;;;;5111576;28;20027;-66
2023/04/18 08:34:35;;;;;;;14.93;13.38;;;12.50;99.90;;;;;;5111302;28;20407;-66
2023/04/18 08:37:01;;;;;;;14.88;13.38;;;12.60;99.90;;;;;;5111580;28;20056;-69
2023/04/18 08:39:27;;;;;;;14.40;12.98;;;12.70;99.90;;;;;;5111546;28;20032;-69
2023/04/18 08:41:59;;;;;;;14.73;12.95;;;12.70;99.90;;;;;;5111720;28;20038;-68
2023/04/18 08:44:28;;;;;;;14.25;12.85;;;12.70;99.90;;;;;;5111712;28;20027;-67
2023/04/18 08:46:55;;;;;;;14.65;13.15;;;12.80;99.90;;;;;;5111137;28;20054;-66
2023/04/18 08:49:21;;;;;;;15.68;12.90;;;12.80;99.90;;;;;;5111871;28;20019;-67
2023/04/18 08:51:50;;;;;;;14.68;12.60;;;12.80;99.90;;;;;;5111777;28;20476;-67
2023/04/18 08:54:17;;;;;;;19.05;13.00;;;12.90;99.90;;;;;;5111405;28;20049;-66
2023/04/18 08:56:43;;;;;;;26.45;13.45;;;13.00;99.90;;;;;;5111484;28;20051;-67
2023/04/18 08:59:10;;;;;;;26.45;12.95;;;13.10;99.90;;;;;;5111375;28;20405;-66
2023/04/18 09:02:07;;;;;;;13.73;11.82;;;13.20;99.90;;;;;;5111402;28;20012;-66
2023/04/18 09:04:44;;;;;;;14.63;12.13;;;13.30;99.90;;;;;;5099309;28;20034;-67
2023/04/18 09:07:13;;;;;;;13.27;11.98;;;13.30;99.90;;;;;;5113992;28;20507;-66
2023/04/18 09:09:52;;;;;;;12.13;10.93;;;13.30;99.90;;;;;;5115262;28;20048;-67
2023/04/18 09:12:21;;;;;;;12.27;11.10;;;13.40;99.90;;;;;;5115224;28;20151;-66
2023/04/18 09:14:50;;;;;;;12.60;11.02;;;13.60;99.90;;;;;;5114659;28;20039;-67
2023/04/18 09:17:33;;;;;;;11.77;10.60;;;13.70;99.90;;;;;;5115248;28;20484;-66
2023/04/18 09:20:04;;;;;;;11.63;10.43;;;13.70;99.90;;;;;;5114782;28;20118;-66
2023/04/18 09:23:13;;;;;;;16.92;11.43;;;13.80;99.90;;;;;;5115076;28;20028;-66
2023/04/18 09:25:45;;;;;;;11.82;10.07;;;14.00;99.90;;;;;;5051806;28;20036;-65
2023/04/18 09:28:28;;;;;;;10.20;9.10;;;14.20;99.90;;;;;;5051706;28;20041;-66
2023/04/18 09:31:06;;;;;;;13.68;9.52;;;14.40;99.90;;;;;;5051422;28;20051;-66
2023/04/18 09:33:32;;;;;;;9.90;9.00;;;14.30;99.90;;;;;;5051340;28;20045;-66
2023/04/18 09:36:25;;;;;;;10.68;9.57;;;14.50;99.90;;;;;;5052030;28;20037;-64
2023/04/18 09:38:52;;;;;;;16.10;10.25;;;14.60;99.90;;;;;;5050543;28;20040;-65
2023/04/18 09:41:18;;;;;;;11.27;9.13;;;14.90;99.90;;;;;;5051422;28;20563;-64
2023/04/18 09:43:45;;;;;;;12.95;9.05;;;14.90;99.90;;;;;;5051704;28;20044;-64
2023/04/18 09:46:12;;;;;;;10.70;9.60;;;14.70;99.90;;;;;;5050714;28;20033;-64
2023/04/18 09:48:39;;;;;;;11.80;9.60;;;14.80;99.90;;;;;;5051567;28;20029;-65
2023/04/18 09:51:06;;;;;;;10.93;9.30;;;14.80;99.90;;;;;;5051625;28;20083;-64
2023/04/18 09:53:37;;;;;;;10.30;9.27;;;14.80;99.90;;;;;;5051179;28;20099;-64
2023/04/18 09:56:05;;;;;;;9.60;8.55;;;14.80;99.90;;;;;;5051059;28;20394;-64
2023/04/18 09:58:33;;;;;;;11.95;8.57;;;14.90;99.90;;;;;;5051175;28;20029;-65
2023/04/18 10:00:59;;;;;;;9.23;8.15;;;15.10;99.90;;;;;;5080006;28;20039;-64
2023/04/18 10:03:33;;;;;;;9.60;8.60;;;15.40;99.90;;;;;;5113469;28;20038;-64
2023/04/18 10:05:58;;;;;;;9.15;8.25;;;15.40;99.90;;;;;;5114043;28;20089;-64
2023/04/18 10:08:25;;;;;;;9.02;8.20;;;15.40;99.90;;;;;;5113618;28;20028;-63
2023/04/18 10:10:50;;;;;;;9.88;8.60;;;15.30;99.90;;;;;;5113663;28;20031;-63
2023/04/18 10:13:18;;;;;;;9.98;8.45;;;15.30;99.90;;;;;;5112227;27;20403;-66
2023/04/18 10:15:44;;;;;;;9.15;8.32;;;15.20;99.90;;;;;;5112404;28;20548;-65
2023/04/18 10:18:13;;;;;;;9.82;8.60;;;15.20;99.90;;;;;;5112920;28;20496;-64
2023/04/18 10:20:40;;;;;;;10.18;8.75;;;15.30;99.90;;;;;;5113862;28;20024;-64
2023/04/18 10:23:33;;;;;;;8.63;7.75;;;15.40;99.90;;;;;;5113629;27;20095;-64
2023/04/18 10:26:00;;;;;;;9.40;8.50;;;15.60;99.90;;;;;;5113939;28;20020;-64
2023/04/18 10:28:27;;;;;;;9.02;8.13;;;15.60;99.90;;;;;;5113225;28;20266;-65
2023/04/18 10:31:01;;;;;;;8.45;7.60;;;15.50;99.90;;;;;;5113800;28;20076;-64
2023/04/18 10:33:34;;;;;;;8.82;7.97;;;15.50;99.90;;;;;;5113269;28;20035;-65
2023/04/18 10:36:09;;;;;;;9.70;7.90;;;15.60;99.90;;;;;;5113414;28;20078;-64
2023/04/18 10:38:41;;;;;;;9.15;8.25;;;15.70;99.90;;;;;;5112832;28;20031;-64
2023/04/18 10:41:26;;;;;;;9.07;7.93;;;15.70;99.90;;;;;;5113461;28;20035;-62
2023/04/18 10:44:17;;;;;;;8.30;7.45;;;15.80;99.90;;;;;;5113135;28;20031;-63
2023/04/18 10:46:52;;;;;;;8.30;7.50;;;15.70;99.90;;;;;;5113129;28;20110;-63
2023/04/18 10:49:23;;;;;;;7.57;6.50;;;15.90;99.90;;;;;;5112639;28;20024;-64
2023/04/18 10:51:51;;;;;;;6.38;5.68;;;16.00;99.90;;;;;;5113147;28;20034;-64
2023/04/18 10:54:45;;;;;;;6.38;5.78;;;16.10;99.90;;;;;;5112885;28;20032;-63
2023/04/18 10:57:12;;;;;;;6.25;5.47;;;16.20;99.90;;;;;;5112765;28;20384;-63
2023/04/18 10:59:40;;;;;;;5.72;5.20;;;16.30;99.90;;;;;;5112687;28;20043;-65
2023/04/18 11:02:29;;;;;;;5.75;4.95;;;16.30;99.90;;;;;;5113393;28;20136;-65
2023/04/18 11:04:57;;;;;;;5.75;5.20;;;16.40;99.90;;;;;;5112862;28;20018;-64
2023/04/18 11:07:40;;;;;;;5.90;5.43;;;16.50;99.90;;;;;;5111729;28;20035;-65
2023/04/18 11:10:08;;;;;;;5.53;5.00;;;16.60;99.90;;;;;;5092747;28;20157;-65
2023/04/18 11:12:36;;;;;;;5.68;5.13;;;16.70;99.90;;;;;;5091869;28;20036;-65
2023/04/18 11:15:08;;;;;;;5.60;5.00;;;16.70;99.90;;;;;;5091694;28;20050;-65
2023/04/18 11:17:34;;;;;;;7.38;5.13;;;16.70;99.90;;;;;;5091802;28;20028;-64
2023/04/18 11:20:07;;;;;;;5.53;5.03;;;16.60;99.90;;;;;;5091545;28;20036;-64
2023/04/18 11:22:56;;;;;;;8.00;5.60;;;16.90;99.90;;;;;;5091973;28;20024;-63
2023/04/18 11:25:35;;;;;;;8.65;6.63;;;16.90;99.90;;;;;;5091407;28;20024;-65
2023/04/18 11:28:02;;;;;;;6.78;6.10;;;16.80;99.90;;;;;;5092252;28;20025;-64
2023/04/18 11:30:41;;;;;;;7.22;6.60;;;17.00;99.90;;;;;;5091013;28;20024;-65
2023/04/18 11:33:07;;;;;;;8.27;6.10;;;17.10;99.90;;;;;;5092011;28;20043;-64
2023/04/18 11:35:57;;;;;;;7.13;6.10;;;16.90;99.90;;;;;;5091629;28;20091;-65
2023/04/18 11:38:29;;;;;;;6.10;5.60;;;16.90;99.90;;;;;;5092151;28;20107;-65
2023/04/18 11:40:55;;;;;;;7.10;6.40;;;16.90;99.90;;;;;;5091594;28;20031;-65
2023/04/18 11:43:23;;;;;;;9.00;6.78;;;17.10;99.90;;;;;;5091907;28;20427;-65
2023/04/18 11:45:52;;;;;;;8.85;7.05;;;17.20;99.90;;;;;;5091703;28;20024;-65
2023/04/18 11:48:18;;;;;;;9.52;8.20;;;17.20;99.90;;;;;;5092092;28;20020;-65
2023/04/18 11:50:43;;;;;;;9.18;8.25;;;17.20;99.90;;;;;;5091816;28;20024;-65
2023/04/18 11:53:09;;;;;;;9.27;8.00;;;17.20;99.90;;;;;;5091527;28;20036;-65
2023/04/18 11:55:35;;;;;;;9.85;8.45;;;17.10;99.90;;;;;;5091725;28;20024;-63
2023/04/18 11:58:02;;;;;;;9.88;8.55;;;17.30;99.90;;;;;;5091803;28;20024;-63
2023/04/18 12:00:38;;;;;;;10.40;8.60;;;17.20;99.90;;;;;;5091489;28;20032;-63
2023/04/18 12:03:15;;;;;;;10.45;9.13;;;17.10;99.90;;;;;;5091912;28;20111;-63
2023/04/18 12:05:41;;;;;;;11.63;10.02;;;17.00;99.90;;;;;;5091704;28;20448;-63
2023/04/18 12:08:08;;;;;;;11.90;10.10;;;16.60;99.90;;;;;;5080196;28;20070;-63
2023/04/18 12:10:34;;;;;;;11.35;9.50;;;16.40;99.90;;;;;;5111532;28;20020;-63
2023/04/18 12:13:04;;;;;;;11.48;9.70;;;16.40;99.90;;;;;;5111800;28;20122;-63
2023/04/18 12:15:30;;;;;;;12.10;9.73;;;16.30;99.90;;;;;;5111977;28;20437;-62
2023/04/18 12:18:08;;;;;;;11.02;8.48;;;16.70;99.90;;;;;;5111914;28;20544;-64
2023/04/18 12:20:35;;;;;;;11.05;8.68;;;17.00;99.90;;;;;;5112206;28;20066;-64
2023/04/18 12:23:02;;;;;;;13.35;8.90;;;17.00;99.90;;;;;;5111659;28;20786;-64
2023/04/18 12:25:28;;;;;;;11.60;8.32;;;16.80;99.90;;;;;;5110394;28;20030;-64
2023/04/18 12:28:13;;;;;;;9.85;8.82;;;17.00;99.90;;;;;;5111993;28;20028;-63
2023/04/18 12:30:40;;;;;;;10.95;8.82;;;17.10;99.90;;;;;;5111761;28;20051;-64
2023/04/18 12:33:08;;;;;;;10.18;9.05;;;17.10;99.90;;;;;;5110842;28;20027;-65
2023/04/18 12:35:34;;;;;;;10.65;8.43;;;17.00;99.90;;;;;;5110906;28;20512;-64